No particular awareness of the weather is required.    There are no Weather-warnings


Meteo18 Weather Cam more information Meteo18 Weather Cam


Thunder radar more information blitzortung!


Rain radar more information rain snow radar


Visit our other weather sites:

Template documentation
and downloads

And another site



Weather Underground History page Text

Daily Summary for November 23, 2017 Units:  English    Metric   Both
« Previous Day
Next Day »
Daily Weekly Monthly Yearly Custom
  High: Low: Average:
Temperature: TemperatureC °F 7.5 °F 11.5 °F
Dew Point: DewpointC °F 5.0 °F 7.1 °F
Humidity: Humidity % 60 % 75 %
Wind Speed: WindSpeedKMH mph 0.0 mph 7.2 mph
Wind Gust: WindSpeedGustKMH mph - -
Wind:- - SW
Pressure: PressurehPa in 1006.7 in -
Precipitation: 0.0 in    
Historical Graphs
 
 
Tabular Data for November 23, 2017
Time Temperature Dew Point Pressure Wind Wind Speed Wind Gust Humidity Rainfall Rate (Hourly)
TemperatureC °F DewpointC °F PressurehPa in Calm     Humidity % HourlyPrecipMM in
00:02 7.7 °F 5.2 °F 1007.7 in SSE 1.6 mph 3.2 mph 84 % 0.0 in
00:12 7.6 °F 5.1 °F 1007.7 in Calm   3.2 mph 84 % 0.0 in
00:17 7.5 °F 5.0 °F 1007.7 in Calm   3.2 mph 84 % 0.0 in
00:32 7.6 °F 5.2 °F 1007.3 in SSW 3.2 mph 4.8 mph 85 % 0.0 in
00:42 7.5 °F 5.1 °F 1007.3 in SSW 3.2 mph 4.8 mph 85 % 0.0 in
00:47 7.6 °F 5.2 °F 1007.3 in SSW 3.2 mph 4.8 mph 85 % 0.0 in
01:07 7.5 °F 5.3 °F 1007.0 in SW 4.8 mph 6.4 mph 86 % 0.0 in
01:12 7.6 °F 5.4 °F 1007.0 in SSW 6.4 mph 6.4 mph 86 % 0.0 in
01:22 7.7 °F 5.3 °F 1007.0 in South 3.2 mph 6.4 mph 85 % 0.0 in
01:32 7.8 °F 5.4 °F 1007.0 in SW 4.8 mph 6.4 mph 85 % 0.0 in
01:37 7.8 °F 5.4 °F 1007.0 in SW 4.8 mph 4.8 mph 85 % 0.0 in
01:42 7.9 °F 5.5 °F 1007.0 in SSW 1.6 mph 6.4 mph 85 % 0.0 in
01:47 7.9 °F 5.4 °F 1006.7 in South 1.6 mph 6.4 mph 84 % 0.0 in
01:57 8.1 °F 5.6 °F 1006.7 in South 1.6 mph 6.4 mph 84 % 0.0 in
02:02 8.1 °F 5.6 °F 1006.7 in SW 1.6 mph 6.4 mph 84 % 0.0 in
02:12 8.1 °F 5.4 °F 1006.7 in Calm   3.2 mph 83 % 0.0 in
02:17 8.0 °F 5.3 °F 1006.7 in Calm   3.2 mph 83 % 0.0 in
02:22 8.0 °F 5.3 °F 1006.7 in West 1.6 mph 3.2 mph 83 % 0.0 in
02:32 8.3 °F 5.4 °F 1006.7 in Calm   3.2 mph 82 % 0.0 in
02:42 8.4 °F 5.3 °F 1006.7 in WSW 1.6 mph 8.0 mph 81 % 0.0 in
02:47 8.4 °F 5.3 °F 1007.0 in WSW 1.6 mph 8.0 mph 81 % 0.0 in
02:57 8.6 °F 5.3 °F 1007.0 in West 1.6 mph 6.4 mph 80 % 0.0 in
03:02 8.7 °F 5.4 °F 1007.0 in SW 1.6 mph 3.2 mph 80 % 0.0 in
03:07 8.7 °F 5.4 °F 1007.0 in West 3.2 mph 3.2 mph 80 % 0.0 in
03:12 8.8 °F 5.4 °F 1007.0 in Calm   4.8 mph 79 % 0.0 in
03:22 9.0 °F 5.4 °F 1007.0 in West 1.6 mph 4.8 mph 78 % 0.0 in
03:27 9.2 °F 5.4 °F 1006.7 in WNW 1.6 mph 3.2 mph 77 % 0.0 in
03:32 9.1 °F 5.3 °F 1006.7 in NW 1.6 mph 3.2 mph 77 % 0.0 in
03:37 9.1 °F 5.3 °F 1006.7 in Calm   3.2 mph 77 % 0.0 in
03:47 9.1 °F 5.3 °F 1006.7 in West 1.6 mph 3.2 mph 77 % 0.0 in
03:52 9.1 °F 5.3 °F 1006.7 in Calm   3.2 mph 77 % 0.0 in
03:57 9.3 °F 5.5 °F 1006.7 in Calm   3.2 mph 77 % 0.0 in
04:12 9.3 °F 5.3 °F 1006.7 in WSW 1.6 mph 3.2 mph 76 % 0.0 in
04:22 9.3 °F 5.5 °F 1007.0 in SW 3.2 mph 4.8 mph 77 % 0.0 in
04:32 9.3 °F 5.3 °F 1006.7 in SSW 6.4 mph 8.0 mph 76 % 0.0 in
04:37 9.4 °F 5.4 °F 1006.7 in SW 4.8 mph 8.0 mph 76 % 0.0 in
04:42 9.4 °F 5.6 °F 1006.7 in SSW 9.7 mph 9.7 mph 77 % 0.0 in
04:47 9.4 °F 5.4 °F 1006.7 in SSW 1.6 mph 9.7 mph 76 % 0.0 in
04:52 8.8 °F 5.2 °F 1006.7 in SSW 1.6 mph 9.7 mph 78 % 0.0 in
04:57 8.6 °F 5.3 °F 1007.0 in SSW 4.8 mph 11.3 mph 80 % 0.0 in
05:02 8.7 °F 5.4 °F 1007.0 in South 6.4 mph 11.3 mph 80 % 0.0 in
05:07 8.7 °F 5.3 °F 1006.7 in SSW 4.8 mph 8.0 mph 79 % 0.0 in
05:12 8.6 °F 5.3 °F 1006.7 in SSW 4.8 mph 8.0 mph 80 % 0.0 in
05:17 8.4 °F 5.3 °F 1007.0 in SSW 4.8 mph 8.0 mph 81 % 0.0 in
05:22 8.6 °F 5.5 °F 1007.0 in SSW 8.0 mph 9.7 mph 81 % 0.0 in
05:32 8.6 °F 5.5 °F 1007.0 in SSW 4.8 mph 11.3 mph 81 % 0.0 in
05:42 8.9 °F 5.6 °F 1007.0 in SSW 6.4 mph 9.7 mph 80 % 0.0 in
06:02 10.3 °F 5.9 °F 1007.3 in SSW 14.5 mph 17.7 mph 74 % 0.0 in
06:12 10.3 °F 5.9 °F 1007.3 in SW 8.0 mph 17.7 mph 74 % 0.0 in
06:17 10.3 °F 6.1 °F 1007.7 in WSW 8.0 mph 16.1 mph 75 % 0.0 in
06:22 10.3 °F 6.1 °F 1007.3 in SW 8.0 mph 16.1 mph 75 % 0.0 in
06:32 10.3 °F 6.1 °F 1007.7 in SW 11.3 mph 12.9 mph 75 % 0.0 in
06:37 10.2 °F 6.2 °F 1007.7 in SW 9.7 mph 16.1 mph 76 % 0.0 in
06:42 10.2 °F 6.2 °F 1007.7 in SSW 9.7 mph 16.1 mph 76 % 0.0 in
06:47 10.3 °F 6.3 °F 1008.0 in SW 9.7 mph 14.5 mph 76 % 0.0 in
06:52 10.2 °F 6.2 °F 1007.7 in SW 6.4 mph 14.5 mph 76 % 0.0 in
07:02 10.3 °F 6.3 °F 1007.7 in SSW 4.8 mph 12.9 mph 76 % 0.0 in
07:12 10.3 °F 6.3 °F 1007.7 in SSW 6.4 mph 12.9 mph 76 % 0.0 in
07:22 10.2 °F 6.2 °F 1008.0 in SSW 11.3 mph 14.5 mph 76 % 0.0 in
07:42 10.8 °F 6.4 °F 1008.4 in SW 11.3 mph 17.7 mph 74 % 0.0 in
07:47 10.7 °F 6.3 °F 1008.4 in SW 8.0 mph 17.7 mph 74 % 0.0 in
07:57 10.7 °F 6.3 °F 1008.7 in SW 11.3 mph 16.1 mph 74 % 0.0 in
08:02 10.9 °F 6.4 °F 1008.7 in SW 9.7 mph 16.1 mph 74 % 0.0 in
08:12 10.7 °F 6.1 °F 1008.7 in SSW 9.7 mph 17.7 mph 73 % 0.0 in
08:17 10.2 °F 6.0 °F 1009.0 in SSW 9.7 mph 17.7 mph 75 % 0.0 in
08:32 10.0 °F 6.2 °F 1009.4 in SW 11.3 mph 16.1 mph 77 % 0.0 in
08:42 10.3 °F 6.3 °F 1009.4 in SW 11.3 mph 14.5 mph 76 % 0.0 in
08:52 10.3 °F 6.3 °F 1009.7 in SSW 9.7 mph 16.1 mph 76 % 0.0 in
09:12 10.6 °F 6.7 °F 1010.0 in South 3.2 mph 14.5 mph 77 % 0.0 in
09:17 10.9 °F 6.8 °F 1010.0 in SSW 6.4 mph 14.5 mph 76 % 0.0 in
09:22 10.9 °F 7.0 °F 1010.0 in SSE 3.2 mph 12.9 mph 77 % 0.0 in
09:32 11.1 °F 7.0 °F 1010.0 in SSE 1.6 mph 11.3 mph 76 % 0.0 in
09:37 11.2 °F 7.1 °F 1010.0 in SSW 4.8 mph 9.7 mph 76 % 0.0 in
09:42 11.3 °F 7.2 °F 1010.4 in SW 3.2 mph 9.7 mph 76 % 0.0 in
09:52 11.4 °F 7.3 °F 1010.4 in SSW 6.4 mph 6.4 mph 76 % 0.0 in
09:57 11.5 °F 7.2 °F 1010.4 in SSW 8.0 mph 11.3 mph 75 % 0.0 in
10:07 11.6 °F 7.3 °F 1010.7 in SW 12.9 mph 12.9 mph 75 % 0.0 in
10:12 11.6 °F 7.3 °F 1010.7 in SSW 8.0 mph 12.9 mph 75 % 0.0 in
10:17 11.9 °F 7.6 °F 1011.1 in SW 6.4 mph 14.5 mph 75 % 0.0 in
10:22 12.1 °F 7.6 °F 1011.1 in SW 8.0 mph 14.5 mph 74 % 0.0 in
10:32 12.4 °F 8.1 °F 1011.1 in SSW 4.8 mph 12.9 mph 75 % 0.0 in
10:47 12.4 °F 8.1 °F 1011.4 in SSW 8.0 mph 9.7 mph 75 % 0.0 in
10:52 12.6 °F 8.3 °F 1011.4 in SSW 11.3 mph 11.3 mph 75 % 0.0 in
11:02 12.9 °F 8.4 °F 1011.4 in SSW 12.9 mph 16.1 mph 74 % 0.0 in
11:12 13.2 °F 8.7 °F 1011.7 in SSW 8.0 mph 19.3 mph 74 % 0.0 in
11:22 14.0 °F 8.8 °F 1011.7 in SSW 4.8 mph 17.7 mph 71 % 0.0 in
11:32 14.8 °F 9.2 °F 1011.4 in SW 16.1 mph 16.1 mph 69 % 0.0 in
11:42 15.3 °F 9.4 °F 1011.4 in SW 17.7 mph 24.1 mph 68 % 0.0 in
11:52 16.2 °F 9.1 °F 1011.7 in SW 20.9 mph 24.1 mph 63 % 0.0 in
12:12 16.5 °F 9.2 °F 1011.7 in SW 8.0 mph 35.4 mph 62 % 0.0 in
12:17 16.6 °F 9.3 °F 1011.7 in SW 20.9 mph 32.2 mph 62 % 0.0 in
12:22 16.7 °F 9.1 °F 1011.4 in SW 27.4 mph 32.2 mph 61 % 0.0 in
12:32 16.7 °F 9.4 °F 1011.4 in SW 17.7 mph 37.0 mph 62 % 0.0 in
12:42 16.4 °F 9.3 °F 1011.4 in SW 20.9 mph 38.6 mph 63 % 0.0 in
12:57 15.7 °F 8.9 °F 1011.7 in SW 14.5 mph 33.8 mph 64 % 0.0 in
13:02 15.8 °F 9.0 °F 1011.7 in West 20.9 mph 33.8 mph 64 % 0.0 in
13:12 15.8 °F 8.3 °F 1011.7 in SW 24.1 mph 30.6 mph 61 % 0.0 in
13:17 16.1 °F 8.3 °F 1011.7 in WSW 16.1 mph 27.4 mph 60 % 0.0 in
13:22 16.1 °F 8.3 °F 1011.7 in SW 20.9 mph 27.4 mph 60 % 0.0 in
13:32 15.9 °F 8.1 °F 1011.7 in SW 17.7 mph 32.2 mph 60 % 0.0 in
13:52 16.3 °F 8.5 °F 1011.7 in WSW 20.9 mph 27.4 mph 60 % 0.0 in
14:02 16.3 °F 8.5 °F 1011.7 in SSW 12.9 mph 30.6 mph 60 % 0.0 in
14:12 16.3 °F 8.8 °F 1011.7 in SSW 16.1 mph 38.6 mph 61 % 0.0 in
14:32 16.2 °F 8.7 °F 1011.7 in West 16.1 mph 33.8 mph 61 % 0.0 in
14:42 16.3 °F 8.8 °F 1011.7 in SW 17.7 mph 33.8 mph 61 % 0.0 in
14:57 16.4 °F 8.9 °F 1011.7 in SW 14.5 mph 30.6 mph 61 % 0.0 in
15:12 16.4 °F 8.9 °F 1011.7 in SW 12.9 mph 27.4 mph 61 % 0.0 in
15:17 16.4 °F 9.1 °F 1012.1 in SW 16.1 mph 25.7 mph 62 % 0.0 in
15:22 16.4 °F 8.9 °F 1012.1 in SW 9.7 mph 25.7 mph 61 % 0.0 in
15:32 16.1 °F 8.8 °F 1012.1 in SW 12.9 mph 25.7 mph 62 % 0.0 in
15:42 15.8 °F 9.0 °F 1012.1 in SSW 12.9 mph 27.4 mph 64 % 0.0 in
15:52 15.4 °F 8.9 °F 1012.1 in SW 6.4 mph 20.9 mph 65 % 0.0 in
15:57 15.4 °F 8.9 °F 1012.1 in SSW 11.3 mph 20.9 mph 65 % 0.0 in
16:12 15.4 °F 9.3 °F 1012.4 in SSW 6.4 mph 24.1 mph 67 % 0.0 in
16:17 15.3 °F 9.2 °F 1012.4 in SW 8.0 mph 17.7 mph 67 % 0.0 in
16:22 15.4 °F 9.1 °F 1012.4 in SSW 8.0 mph 17.7 mph 66 % 0.0 in
16:27 15.3 °F 9.2 °F 1012.4 in SSW 4.8 mph 17.7 mph 67 % 0.0 in
16:37 14.6 °F 9.0 °F 1012.4 in SSW 4.8 mph 12.9 mph 69 % 0.0 in
16:42 14.6 °F 9.2 °F 1012.4 in SSW 6.4 mph 11.3 mph 70 % 0.0 in
16:52 14.2 °F 8.8 °F 1012.4 in SSW 8.0 mph 11.3 mph 70 % 0.0 in
16:57 13.8 °F 8.6 °F 1012.8 in SW 6.4 mph 11.3 mph 71 % 0.0 in
17:12 13.3 °F 8.4 °F 1012.8 in SW 9.7 mph 11.3 mph 72 % 0.0 in
17:17 13.3 °F 8.4 °F 1012.8 in SW 8.0 mph 12.9 mph 72 % 0.0 in
17:22 13.4 °F 8.2 °F 1012.8 in SSW 8.0 mph 14.5 mph 71 % 0.0 in
17:32 13.1 °F 8.4 °F 1012.8 in SSW 9.7 mph 14.5 mph 73 % 0.0 in
17:52 12.6 °F 8.3 °F 1013.1 in SSW 6.4 mph 12.9 mph 75 % 0.0 in
17:57 12.5 °F 8.2 °F 1013.1 in SSW 8.0 mph 12.9 mph 75 % 0.0 in
18:02 12.4 °F 8.1 °F 1013.4 in SSW 6.4 mph 12.9 mph 75 % 0.0 in
18:07 12.4 °F 8.1 °F 1013.4 in SW 11.3 mph 12.9 mph 75 % 0.0 in
18:17 12.5 °F 8.2 °F 1013.4 in SSW 8.0 mph 12.9 mph 75 % 0.0 in
18:22 12.6 °F 8.1 °F 1013.4 in SSW 4.8 mph 12.9 mph 74 % 0.0 in
18:27 12.6 °F 8.1 °F 1013.4 in SW 8.0 mph 12.9 mph 74 % 0.0 in
18:42 12.6 °F 8.3 °F 1013.4 in SW 6.4 mph 11.3 mph 75 % 0.0 in
18:52 12.7 °F 8.2 °F 1013.8 in SW 8.0 mph 11.3 mph 74 % 0.0 in
18:57 12.6 °F 8.1 °F 1013.4 in SW 4.8 mph 11.3 mph 74 % 0.0 in
19:07 12.4 °F 8.1 °F 1013.8 in SW 6.4 mph 9.7 mph 75 % 0.0 in
19:12 12.3 °F 8.0 °F 1013.8 in SW 6.4 mph 8.0 mph 75 % 0.0 in
19:22 12.4 °F 8.1 °F 1013.8 in SW 4.8 mph 9.7 mph 75 % 0.0 in
19:32 12.4 °F 8.1 °F 1013.8 in SW 3.2 mph 9.7 mph 75 % 0.0 in
19:42 12.3 °F 8.0 °F 1013.8 in SSW 4.8 mph 9.7 mph 75 % 0.0 in
19:47 12.3 °F 8.0 °F 1013.8 in SW 6.4 mph 9.7 mph 75 % 0.0 in
19:52 12.3 °F 8.0 °F 1013.8 in SW 4.8 mph 9.7 mph 75 % 0.0 in
20:02 12.2 °F 8.1 °F 1013.8 in SSW 8.0 mph 11.3 mph 76 % 0.0 in
20:07 12.2 °F 8.1 °F 1014.1 in SW 8.0 mph 11.3 mph 76 % 0.0 in
20:12 12.1 °F 8.0 °F 1013.8 in SW 4.8 mph 11.3 mph 76 % 0.0 in
20:22 11.9 °F 8.0 °F 1013.8 in SW 4.8 mph 11.3 mph 77 % 0.0 in
20:27 11.8 °F 7.9 °F 1014.1 in SW 6.4 mph 11.3 mph 77 % 0.0 in
20:32 11.8 °F 7.9 °F 1014.1 in SSW 6.4 mph 11.3 mph 77 % 0.0 in
20:42 12.0 °F 8.1 °F 1014.1 in SW 12.9 mph 12.9 mph 77 % 0.0 in
20:52 12.2 °F 8.1 °F 1014.1 in SW 6.4 mph 12.9 mph 76 % 0.0 in
21:02 12.2 °F 8.3 °F 1014.1 in SSW 8.0 mph 12.9 mph 77 % 0.0 in
21:07 12.2 °F 8.3 °F 1014.1 in SSW 8.0 mph 11.3 mph 77 % 0.0 in
21:17 12.1 °F 8.2 °F 1014.1 in SW 8.0 mph 12.9 mph 77 % 0.0 in
21:22 11.9 °F 8.0 °F 1014.1 in South 6.4 mph 12.9 mph 77 % 0.0 in
21:52 10.9 °F 7.6 °F 1014.4 in SW 6.4 mph 8.0 mph 80 % 0.0 in
22:02 10.8 °F 7.5 °F 1014.4 in SSW 6.4 mph 9.7 mph 80 % 0.0 in
22:17 10.5 °F 7.4 °F 1014.1 in SSW 4.8 mph 9.7 mph 81 % 0.0 in
22:27 10.5 °F 7.4 °F 1014.1 in SSW 4.8 mph 6.4 mph 81 % 0.0 in
22:32 10.5 °F 7.4 °F 1014.1 in SSW 4.8 mph 6.4 mph 81 % 0.0 in
22:37 10.6 °F 7.5 °F 1014.4 in SSW 4.8 mph 6.4 mph 81 % 0.0 in
22:42 10.6 °F 7.5 °F 1014.4 in SSW 4.8 mph 6.4 mph 81 % 0.0 in
22:57 10.6 °F 7.5 °F 1014.1 in SSW 1.6 mph 4.8 mph 81 % 0.0 in
23:02 10.5 °F 7.4 °F 1014.4 in SSW 3.2 mph 4.8 mph 81 % 0.0 in
23:07 10.4 °F 7.3 °F 1014.4 in SSW 1.6 mph 3.2 mph 81 % 0.0 in
23:12 10.3 °F 7.4 °F 1014.4 in SSW 3.2 mph 3.2 mph 82 % 0.0 in
23:17 10.3 °F 7.4 °F 1014.4 in SSW 1.6 mph 3.2 mph 82 % 0.0 in
23:22 10.4 °F 7.5 °F 1014.4 in SSW 3.2 mph 3.2 mph 82 % 0.0 in
23:32 10.5 °F 7.4 °F 1014.4 in SSW 1.6 mph 3.2 mph 81 % 0.0 in
23:42 10.5 °F 7.4 °F 1014.4 in SW 3.2 mph 3.2 mph 81 % 0.0 in
23:47 10.7 °F 7.6 °F 1014.4 in SW 4.8 mph 4.8 mph 81 % 0.0 in
23:52 10.9 °F 7.6 °F 1014.1 in South 1.6 mph 4.8 mph 80 % 0.0 in
23:57 10.9 °F 7.6 °F 1013.8 in SSW 1.6 mph 4.8 mph 80 % 0.0 in
Meteo18
Compliments of Weather Underground - 4 mb

Script developed by  Jim McMurry - jmcmurry@mwt.net Adapted for the template by  Wim van der Kuil - Leuven-Template.eu

You find our weather info also at:

European Weather Network

Weather Underground

Equipment we use:

Weather-station
Davis Vue

Weather-program
Meteobridge

Weather-server
Raspberry PI 2 B+

Provider
1 and 1

Davis Vue

Meteobridge

Raspberry PI 2 B+

1 and 1